Air Navigation Services of Czech Republic  
Last data update:  29.04.2017 07:06:15 UTC Česká verze
   METEO Page displayed:  29.04.2017 07:26:16 UTC  
help
METAR EDDB 290650Z 28013KT 9999 BKN014 SCT046 07/04 Q1015 BECMG BKN015=
METAR EDDC 290650Z 26006KT 220V300 9999 FEW013 BKN036 07/03 Q1016 TEMPO 4000 -RA BKN014=
METAR EDDE 290650Z 27009KT 240V300 9999 FEW030 SCT042 07/03 Q1016 NOSIG=
METAR EDDF 290650Z 27006KT 240V300 9999 FEW020 09/03 Q1018 NOSIG=
METAR EDDM 290650Z 25010KT 9999 FEW038 BKN080 05/02 Q1019 NOSIG=
METAR EDDN 290650Z 23006KT 180V270 CAVOK 07/02 Q1018 NOSIG=
METAR EDDP 290650Z 26007KT 9999 FEW019 BKN029 BKN040 07/05 Q1016 NOSIG=
METAR EDDT 290650Z 29007KT 260V320 9999 FEW009 BKN070 07/04 Q1015 NOSIG=
METAR EDQM 281750Z 10004KT 070V140 CAVOK 06/M02 Q1012=
METAR EPBY 290700Z 31010KT 280V340 9999 FEW011 SCT014 BKN016 07/04 Q1013 =
METAR EPGD 290700Z 33014KT 7000 -RADZ SCT004 BKN006 04/03 Q1011 =
METAR EPKK 290700Z 26010KT 9999 SCT010 BKN015 05/03 Q1015 =
METAR EPKT 290700Z 27010KT 9999 SCT006 BKN008 05/03 Q1015 =
METAR EPLL 290700Z 27013KT 9999 SCT008 BKN015 06/04 Q1013 =
METAR EPPO 290700Z 27004KT CAVOK 08/03 Q1014 =
METAR EPRZ 290700Z 27012KT 9999 SCT011 BKN023 05/03 Q1014 =
METAR EPWA 290700Z 28008KT 9999 BKN013 05/04 Q1011 BECMG BKN015=
METAR EPWR 290700Z 27008KT CAVOK 08/04 Q1015 =
METAR LHBP 290700Z 29016KT 9999 BKN021 08/03 Q1016 NOSIG=
METAR LHSM 290645Z 35004KT CAVOK 08/04 Q1019 NOSIG=
METAR LKCV 290700Z 22005KT CAVOK 07/03 Q1017 NOSIG=
METAR LKKB 290700Z 22009KT 9000 NSC 06/04 Q1017 NOSIG =
METAR LKKU NIL
METAR LKKV 290700Z 27006KT 240V300 9999 FEW040 04/01 Q1016 RMK REG QNH 1013=
METAR LKLN 290700Z AUTO 22005KT 200V260 9000 OVC042 05/03 Q1017=
METAR LKMT 290700Z 21006KT 9999 FEW015 07/03 Q1016 NOSIG RMK REG QNH 1013=
METAR LKNA 290700Z 31012KT CAVOK 05/02 Q1016 NOSIG=
METAR LKPD 290700Z VRB02KT 9999 FEW011 SCT050 06/03 Q1017 =
METAR LKPR 290700Z 24012KT 9999 FEW012 06/03 Q1016 NOSIG RMK REG QNH 1013=
METAR LKTB 290700Z VRB02KT 9999 FEW014 07/04 Q1017 NOSIG RMK REG QNH 1013=
METAR LKVO NIL
METAR LOWI 290650Z 27003KT 220V330 9999 FEW010 SCT020 BKN040 04/01 Q1020 NOSIG=
METAR LOWL 290650Z 29007KT 9000 FEW012 BKN024 05/03 Q1019 NOSIG=
METAR LOWS 290650Z 14008KT 9999 FEW005 05/02 Q1019 NOSIG=
METAR LOWW 290650Z 29012KT 9999 SCT050 SCT300 08/03 Q1018 NOSIG=
METAR LZIB 290700Z 29012KT 9999 FEW019 07/03 Q1018 NOSIG=
METAR LZKZ 290700Z 02014KT 9999 OVC028 07/02 Q1014 NOSIG=
METAR LZPP 290700Z 32003KT 280V360 9999 FEW016 BKN020 07/03 Q1017=
METAR LZSL 290700Z 34014KT 9999 FEW036 09/01 Q1014=
METAR LZTT 290700Z 27013KT 9999 FEW006 BKN016 04/00 Q1013 NOSIG=
METAR LZZI 290700Z 00000KT 9999 FEW005 SCT023 BKN036 05/02 Q1016=